Time;durP1;ratioP1;P1;durP2;ratioP2;P2;SDS_P1;SDS_P2;PMS_P1;PMS_P2;Temp;Humidity;BMP_temperature;BMP_pressure;BME280_temperature;BME280_humidity;BME280_pressure;Samples;Min_cycle;Max_cycle;Signal;HPM_P1;HPM_P2
2021/05/04 04:02:43;;;;;;;6.65;6.05;;;8.40;99.90;;;;;;4934532;29;20229;-71
2021/05/04 04:05:11;;;;;;;6.10;5.60;;;8.40;99.90;;;;;;4937221;29;20670;-71
2021/05/04 04:07:37;;;;;;;6.47;6.07;;;8.40;99.90;;;;;;4937567;28;20589;-71
2021/05/04 04:10:04;;;;;;;6.90;6.40;;;8.40;99.90;;;;;;4937282;29;20221;-68
2021/05/04 04:12:30;;;;;;;6.53;5.93;;;8.40;99.90;;;;;;4936882;29;20281;-68
2021/05/04 04:14:56;;;;;;;6.72;6.13;;;8.40;99.90;;;;;;4936722;29;20214;-68
2021/05/04 04:17:23;;;;;;;7.10;6.45;;;8.50;99.90;;;;;;4936771;29;20221;-69
2021/05/04 04:19:50;;;;;;;6.97;6.55;;;8.50;99.90;;;;;;4936808;29;20670;-69
2021/05/04 04:22:16;;;;;;;7.10;6.50;;;8.60;99.90;;;;;;4936748;29;20233;-68
2021/05/04 04:24:43;;;;;;;6.30;5.80;;;8.60;99.90;;;;;;4937430;29;20257;-69
2021/05/04 04:27:09;;;;;;;5.18;4.88;;;8.70;99.90;;;;;;4937096;29;20214;-72
2021/05/04 04:29:36;;;;;;;5.80;5.30;;;8.80;99.90;;;;;;4936556;29;20298;-71
2021/05/04 04:32:02;;;;;;;5.13;4.80;;;8.80;99.90;;;;;;4936904;29;20237;-71
2021/05/04 04:34:28;;;;;;;5.65;5.15;;;8.90;99.90;;;;;;4937223;29;20545;-72
2021/05/04 04:36:56;;;;;;;6.00;5.55;;;9.00;99.90;;;;;;4936925;29;20569;-71
2021/05/04 04:39:22;;;;;;;6.47;5.95;;;9.10;99.90;;;;;;4936901;29;20209;-70
2021/05/04 04:41:48;;;;;;;5.95;5.43;;;9.10;99.90;;;;;;4936548;29;20305;-70
2021/05/04 04:44:15;;;;;;;5.30;5.05;;;9.20;99.90;;;;;;4936428;29;20277;-70
2021/05/04 04:46:41;;;;;;;5.28;4.88;;;9.20;99.90;;;;;;4936175;29;20210;-70
2021/05/04 04:49:08;;;;;;;5.00;4.55;;;9.20;99.90;;;;;;4936522;29;20214;-71
2021/05/04 04:51:34;;;;;;;4.72;4.53;;;9.20;99.90;;;;;;4936587;29;20230;-70
2021/05/04 04:54:01;;;;;;;5.82;5.30;;;9.30;99.90;;;;;;4936500;29;20289;-70
2021/05/04 04:56:27;;;;;;;5.32;4.90;;;9.30;99.90;;;;;;4936126;29;20206;-70
2021/05/04 04:58:53;;;;;;;5.82;5.53;;;9.30;99.90;;;;;;4936413;29;20659;-70
2021/05/04 05:01:20;;;;;;;5.50;5.10;;;9.30;99.90;;;;;;4935676;29;20604;-71
2021/05/04 05:03:46;;;;;;;4.90;4.53;;;9.30;99.90;;;;;;4936130;29;20233;-69
2021/05/04 05:06:12;;;;;;;4.72;4.43;;;9.20;99.90;;;;;;4935891;29;20222;-70
2021/05/04 05:08:38;;;;;;;5.40;4.95;;;9.20;99.90;;;;;;4938276;29;20585;-70
2021/05/04 05:11:05;;;;;;;5.72;5.35;;;9.20;99.90;;;;;;4938311;29;20234;-71
2021/05/04 05:13:31;;;;;;;5.68;5.25;;;9.10;99.90;;;;;;4939005;29;20212;-69
2021/05/04 05:15:58;;;;;;;5.63;5.22;;;9.10;99.90;;;;;;4937928;29;20214;-70
2021/05/04 05:18:24;;;;;;;5.80;5.50;;;9.20;99.90;;;;;;4937521;29;20214;-74
2021/05/04 05:20:50;;;;;;;5.85;5.45;;;9.10;99.90;;;;;;4936472;29;20289;-75
2021/05/04 05:23:18;;;;;;;6.15;5.70;;;9.10;99.90;;;;;;4936161;29;20274;-74
2021/05/04 05:25:44;;;;;;;5.85;5.55;;;9.10;99.90;;;;;;4936035;29;20209;-73
2021/05/04 05:28:11;;;;;;;5.85;5.45;;;9.10;99.90;;;;;;4936767;29;20245;-73
2021/05/04 05:30:37;;;;;;;5.93;5.57;;;9.20;99.90;;;;;;4936619;29;20713;-72
2021/05/04 05:33:04;;;;;;;7.05;6.55;;;9.20;99.90;;;;;;4936208;29;20213;-73
2021/05/04 05:35:30;;;;;;;5.70;5.32;;;9.20;99.90;;;;;;4937329;29;20643;-74
2021/05/04 05:37:56;;;;;;;6.78;6.30;;;9.20;99.90;;;;;;4937679;29;20603;-74
2021/05/04 05:40:23;;;;;;;5.95;5.57;;;9.20;99.90;;;;;;4937758;29;20210;-74
2021/05/04 05:42:49;;;;;;;6.65;6.25;;;9.20;99.90;;;;;;4936847;29;20273;-72
2021/05/04 05:45:16;;;;;;;7.05;6.55;;;9.20;99.90;;;;;;4936062;29;20210;-72
2021/05/04 05:47:42;;;;;;;6.10;5.80;;;9.20;99.90;;;;;;4935042;29;20217;-72
2021/05/04 05:50:09;;;;;;;5.93;5.47;;;9.20;99.90;;;;;;4936513;29;20631;-72
2021/05/04 05:52:35;;;;;;;7.72;5.80;;;9.20;99.90;;;;;;4936216;29;20681;-73
2021/05/04 05:55:01;;;;;;;7.55;6.88;;;9.20;99.90;;;;;;4936335;29;20214;-72
2021/05/04 05:57:27;;;;;;;5.82;5.43;;;9.20;99.90;;;;;;4935871;29;20272;-73
2021/05/04 05:59:53;;;;;;;6.03;5.72;;;9.20;99.90;;;;;;4936001;29;20685;-72
2021/05/04 06:02:20;;;;;;;6.22;5.82;;;9.10;99.90;;;;;;4935215;29;20249;-72
2021/05/04 06:04:47;;;;;;;6.80;6.35;;;9.10;99.90;;;;;;4936007;29;20217;-70
2021/05/04 06:07:13;;;;;;;6.75;6.25;;;9.10;99.90;;;;;;4936253;29;20214;-70
2021/05/04 06:09:40;;;;;;;6.72;6.32;;;9.10;99.90;;;;;;4936595;29;20233;-71
2021/05/04 06:12:07;;;;;;;7.10;6.60;;;9.10;99.90;;;;;;4936814;29;20600;-71
2021/05/04 06:14:33;;;;;;;6.25;5.85;;;9.10;99.90;;;;;;4936399;29;20281;-71
2021/05/04 06:16:59;;;;;;;6.25;5.95;;;9.00;99.90;;;;;;4936562;29;20636;-70
2021/05/04 06:19:26;;;;;;;6.15;5.75;;;9.00;99.90;;;;;;4936437;29;20221;-70
2021/05/04 06:21:53;;;;;;;6.45;5.75;;;9.00;99.90;;;;;;4935970;29;20241;-70
2021/05/04 06:24:19;;;;;;;6.20;5.85;;;9.00;99.90;;;;;;4935734;29;20225;-70
2021/05/04 06:26:45;;;;;;;5.90;5.40;;;9.00;99.90;;;;;;4935746;29;20769;-70
2021/05/04 06:29:11;;;;;;;6.13;5.63;;;9.10;99.90;;;;;;4936490;29;20566;-70
2021/05/04 06:31:38;;;;;;;6.15;5.75;;;9.10;99.90;;;;;;4935764;29;20261;-69
2021/05/04 06:34:05;;;;;;;6.05;5.65;;;9.20;99.90;;;;;;4936692;29;20235;-69
2021/05/04 06:36:33;;;;;;;5.72;5.32;;;9.30;99.90;;;;;;4936212;29;20223;-70
2021/05/04 06:38:59;;;;;;;5.43;5.13;;;9.50;99.90;;;;;;4937357;29;20205;-70
2021/05/04 06:41:25;;;;;;;6.03;5.70;;;9.60;99.90;;;;;;4937600;29;20240;-70
2021/05/04 06:43:51;;;;;;;5.35;5.05;;;9.70;99.90;;;;;;4937695;29;20651;-70
2021/05/04 06:46:17;;;;;;;5.47;4.97;;;9.80;99.90;;;;;;4939366;29;20221;-69
2021/05/04 06:48:44;;;;;;;5.60;5.10;;;9.80;99.90;;;;;;4939996;29;20205;-69
2021/05/04 06:51:10;;;;;;;5.22;4.60;;;9.70;99.90;;;;;;4940363;29;20258;-69
2021/05/04 06:53:37;;;;;;;5.63;5.18;;;9.80;99.90;;;;;;4940197;29;20214;-70
2021/05/04 06:56:04;;;;;;;5.03;4.70;;;9.80;99.90;;;;;;4940927;29;20210;-71
2021/05/04 06:58:30;;;;;;;4.97;4.72;;;9.80;99.90;;;;;;4941672;29;20224;-70
2021/05/04 07:00:56;;;;;;;3.80;3.70;;;9.80;99.90;;;;;;4943250;29;20248;-70
2021/05/04 07:03:22;;;;;;;4.50;4.15;;;9.70;99.90;;;;;;4939724;29;20297;-70
2021/05/04 07:05:48;;;;;;;4.47;4.28;;;9.70;99.90;;;;;;4939213;29;20217;-70
2021/05/04 07:08:15;;;;;;;4.00;3.80;;;9.70;99.90;;;;;;4939753;29;20272;-70
2021/05/04 07:10:42;;;;;;;3.42;3.33;;;9.70;99.90;;;;;;4939633;29;20305;-70
2021/05/04 07:13:14;;;;;;;3.40;3.30;;;9.70;99.90;;;;;;4939343;29;20225;-69
2021/05/04 07:15:40;;;;;;;4.35;3.97;;;9.70;99.90;;;;;;4938466;29;20523;-68
2021/05/04 07:18:09;;;;;;;3.97;3.88;;;9.70;99.90;;;;;;4938473;29;20268;-69
2021/05/04 07:20:36;;;;;;;4.15;3.95;;;9.80;99.90;;;;;;4938324;29;20253;-68
2021/05/04 07:23:04;;;;;;;3.20;3.10;;;9.80;99.90;;;;;;4938077;29;20229;-68
2021/05/04 07:25:31;;;;;;;3.65;3.13;;;9.90;99.90;;;;;;4938313;29;20210;-68
2021/05/04 07:27:58;;;;;;;3.45;3.33;;;9.90;99.90;;;;;;4938318;29;20248;-69
2021/05/04 07:30:24;;;;;;;4.57;3.38;;;9.90;99.90;;;;;;4937682;29;20214;-70
2021/05/04 07:32:51;;;;;;;3.42;3.30;;;10.00;99.90;;;;;;4937477;29;20205;-70
2021/05/04 07:35:17;;;;;;;3.72;3.53;;;10.00;99.90;;;;;;4937903;29;20210;-70
2021/05/04 07:37:43;;;;;;;3.30;3.10;;;10.10;99.90;;;;;;4938308;29;20209;-70
2021/05/04 07:40:10;;;;;;;2.63;2.50;;;10.20;99.90;;;;;;4937858;29;20206;-70
2021/05/04 07:42:36;;;;;;;3.30;3.20;;;10.30;99.90;;;;;;4937814;29;20256;-70
2021/05/04 07:45:04;;;;;;;5.57;4.22;;;10.30;99.90;;;;;;4938564;29;20206;-73
2021/05/04 07:47:30;;;;;;;42.13;29.83;;;10.30;99.90;;;;;;4939521;29;20615;-73
2021/05/04 07:49:57;;;;;;;36.88;21.85;;;10.30;99.90;;;;;;4939380;29;20217;-73
2021/05/04 07:52:24;;;;;;;23.67;12.20;;;10.30;99.90;;;;;;4938789;29;20226;-73
2021/05/04 07:54:51;;;;;;;33.95;16.27;;;10.30;99.90;;;;;;4938712;29;20218;-73
2021/05/04 07:57:18;;;;;;;32.40;16.10;;;10.30;99.90;;;;;;4939125;29;20209;-71
2021/05/04 07:59:44;;;;;;;24.55;14.20;;;10.30;99.90;;;;;;4937703;29;20210;-71
2021/05/04 08:02:11;;;;;;;11.45;10.15;;;10.20;99.90;;;;;;4937311;29;20237;-71
2021/05/04 08:04:37;;;;;;;21.25;13.15;;;10.10;99.90;;;;;;4938186;29;20245;-71
2021/05/04 08:07:07;;;;;;;42.85;25.75;;;10.20;99.90;;;;;;4938532;29;20218;-70
2021/05/04 08:09:33;;;;;;;49.38;24.30;;;10.40;99.90;;;;;;4937679;29;20919;-70
2021/05/04 08:11:59;;;;;;;15.88;12.68;;;10.60;99.90;;;;;;4937345;29;20225;-71
2021/05/04 08:14:26;;;;;;;6.60;5.75;;;10.90;99.90;;;;;;4936948;29;20224;-71
2021/05/04 08:16:53;;;;;;;12.32;8.82;;;11.20;99.90;;;;;;4937708;29;20214;-70
2021/05/04 08:19:21;;;;;;;11.60;10.50;;;11.20;99.90;;;;;;4937422;29;20296;-73
2021/05/04 08:21:48;;;;;;;6.40;5.90;;;11.20;99.90;;;;;;4937358;29;20234;-73
2021/05/04 08:24:14;;;;;;;5.63;5.30;;;11.30;99.90;;;;;;4938250;29;20237;-71
2021/05/04 08:26:41;;;;;;;9.32;7.32;;;11.20;99.90;;;;;;4937987;29;20272;-70
2021/05/04 08:29:07;;;;;;;3.13;3.10;;;11.20;99.90;;;;;;4937274;29;20217;-70
2021/05/04 08:31:34;;;;;;;6.38;5.97;;;11.20;99.90;;;;;;4935908;29;20721;-70
2021/05/04 08:34:00;;;;;;;2.80;2.70;;;11.20;99.90;;;;;;4937826;29;20640;-73
2021/05/04 08:36:27;;;;;;;3.30;3.20;;;11.20;99.90;;;;;;4937792;29;20237;-73
2021/05/04 08:38:53;;;;;;;3.00;3.00;;;11.30;99.90;;;;;;4938273;29;20206;-73
2021/05/04 08:41:20;;;;;;;4.00;3.90;;;11.20;99.90;;;;;;4937861;29;20240;-73
2021/05/04 08:43:47;;;;;;;3.20;3.10;;;11.20;99.90;;;;;;4937419;29;20229;-73
2021/05/04 08:46:14;;;;;;;3.22;3.13;;;11.30;99.90;;;;;;4937146;29;20552;-73
2021/05/04 08:48:43;;;;;;;3.72;3.53;;;11.20;99.90;;;;;;4938058;29;20253;-73
2021/05/04 08:51:12;;;;;;;2.78;2.67;;;11.30;99.90;;;;;;4937424;29;20234;-73
2021/05/04 08:53:40;;;;;;;2.92;2.85;;;11.40;99.90;;;;;;4937743;29;20206;-72
2021/05/04 08:56:08;;;;;;;2.80;2.70;;;11.40;99.90;;;;;;4937640;29;20292;-70
2021/05/04 08:58:35;;;;;;;2.72;2.63;;;11.40;99.90;;;;;;4941059;29;20210;-69
2021/05/04 09:01:01;;;;;;;2.60;2.60;;;11.40;99.90;;;;;;4939924;29;20242;-69
2021/05/04 09:03:32;;;;;;;2.70;2.60;;;11.40;99.90;;;;;;4939801;29;20225;-70
2021/05/04 09:06:02;;;;;;;2.42;2.33;;;11.50;99.90;;;;;;4937651;29;20210;-73
2021/05/04 09:08:39;;;;;;;2.20;2.10;;;11.50;99.90;;;;;;4936955;29;20213;-72
2021/05/04 09:11:24;;;;;;;3.03;2.83;;;11.50;99.90;;;;;;4936793;29;20261;-72
2021/05/04 09:13:57;;;;;;;2.97;2.95;;;11.50;99.90;;;;;;4937492;29;20595;-72
2021/05/04 09:16:33;;;;;;;2.88;2.85;;;11.50;99.90;;;;;;4936552;29;20329;-73
2021/05/04 09:19:13;;;;;;;2.22;2.22;;;11.70;99.90;;;;;;4937073;29;20228;-72
2021/05/04 09:21:41;;;;;;;2.25;2.20;;;11.70;99.90;;;;;;4936891;29;20320;-72
2021/05/04 09:24:28;;;;;;;2.42;2.42;;;11.70;99.90;;;;;;4936388;29;20226;-73
2021/05/04 09:27:04;;;;;;;2.50;2.40;;;11.60;99.90;;;;;;4936981;29;20214;-72
2021/05/04 09:29:32;;;;;;;2.60;2.50;;;11.50;99.90;;;;;;4935803;29;20264;-72
2021/05/04 09:32:12;;;;;;;1.98;1.98;;;11.50;99.90;;;;;;4936284;29;20253;-73
2021/05/04 09:34:43;;;;;;;2.35;2.25;;;11.40;99.90;;;;;;4941283;29;20281;-73
2021/05/04 09:37:25;;;;;;;3.20;2.88;;;11.30;99.90;;;;;;4943671;29;20210;-73
2021/05/04 09:39:51;;;;;;;2.60;1.98;;;11.10;99.90;;;;;;4938593;29;20206;-71
2021/05/04 09:42:18;;;;;;;3.97;3.65;;;10.90;99.90;;;;;;4936452;29;20236;-73
2021/05/04 09:44:46;;;;;;;3.42;3.22;;;10.90;99.90;;;;;;4936140;29;20225;-72
2021/05/04 09:47:18;;;;;;;2.22;2.13;;;10.80;99.90;;;;;;4936241;29;20248;-72
2021/05/04 09:49:44;;;;;;;2.42;2.42;;;10.90;99.90;;;;;;4936413;29;20221;-72
2021/05/04 09:52:33;;;;;;;2.33;2.33;;;10.90;99.90;;;;;;4935619;29;20230;-72
2021/05/04 09:55:08;;;;;;;1.90;1.90;;;11.00;99.90;;;;;;4936137;29;20313;-69
2021/05/04 09:57:37;;;;;;;2.28;2.20;;;11.00;99.90;;;;;;4935594;29;20225;-69
2021/05/04 10:00:07;;;;;;;2.35;1.90;;;10.90;99.90;;;;;;4935716;29;20205;-69
2021/05/04 10:02:34;;;;;;;2.88;2.78;;;10.90;99.90;;;;;;4935457;29;20273;-70
2021/05/04 10:05:01;;;;;;;5.05;4.72;;;10.90;99.90;;;;;;4935453;29;20213;-70
2021/05/04 10:07:29;;;;;;;5.10;4.90;;;10.90;99.90;;;;;;4935341;29;20222;-72
2021/05/04 10:09:56;;;;;;;2.60;2.50;;;10.90;99.90;;;;;;4935896;29;20688;-72
2021/05/04 10:12:22;;;;;;;2.22;2.22;;;11.00;99.90;;;;;;4934775;29;20699;-72
2021/05/04 10:14:51;;;;;;;2.45;2.00;;;11.00;99.90;;;;;;4934475;29;20281;-72
2021/05/04 10:17:17;;;;;;;6.28;2.25;;;10.90;99.90;;;;;;4934711;29;20213;-72
2021/05/04 10:19:44;;;;;;;2.20;2.20;;;11.00;99.90;;;;;;4935059;29;20214;-72
2021/05/04 10:22:12;;;;;;;2.00;2.00;;;10.90;99.90;;;;;;4934974;29;20230;-72
2021/05/04 10:24:40;;;;;;;2.00;2.00;;;11.00;99.90;;;;;;4935364;29;20328;-73
2021/05/04 10:27:08;;;;;;;2.03;2.03;;;11.00;99.90;;;;;;4934947;29;20206;-72
2021/05/04 10:29:36;;;;;;;3.25;3.10;;;11.00;99.90;;;;;;4934403;29;20236;-72
2021/05/04 10:32:04;;;;;;;4.05;3.85;;;11.10;99.90;;;;;;4934090;29;20234;-71
2021/05/04 10:34:33;;;;;;;5.60;5.30;;;11.10;99.90;;;;;;4937277;29;20244;-73
2021/05/04 10:37:00;;;;;;;5.32;4.93;;;11.20;99.90;;;;;;4938819;29;20697;-73
2021/05/04 10:39:33;;;;;;;3.00;2.95;;;11.20;99.90;;;;;;4939145;29;20214;-73
2021/05/04 10:42:00;;;;;;;2.92;2.83;;;11.30;99.90;;;;;;4938943;29;20236;-72
2021/05/04 10:44:27;;;;;;;2.20;2.20;;;11.30;99.90;;;;;;4938397;29;20229;-73
2021/05/04 10:46:54;;;;;;;2.75;2.70;;;11.40;99.90;;;;;;4938638;29;20650;-74
2021/05/04 10:49:57;;;;;;;2.65;2.55;;;11.50;99.90;;;;;;4938798;29;20260;-73
2021/05/04 10:52:55;;;;;;;2.88;2.78;;;11.60;99.90;;;;;;4938649;29;20236;-73
2021/05/04 10:55:22;;;;;;;2.28;2.28;;;11.80;99.90;;;;;;4935291;29;20241;-73
2021/05/04 10:58:13;;;;;;;2.75;2.60;;;11.90;99.90;;;;;;4938724;29;20260;-72
2021/05/04 11:00:56;;;;;;;2.58;2.47;;;12.00;99.90;;;;;;4931177;29;20324;-73
2021/05/04 11:03:44;;;;;;;3.28;3.00;;;12.00;99.90;;;;;;4936198;29;20527;-74
2021/05/04 11:06:13;;;;;;;2.53;2.42;;;11.90;99.90;;;;;;4938438;29;20730;-73
2021/05/04 11:09:08;;;;;;;2.08;2.08;;;11.90;99.90;;;;;;4938791;29;20210;-73
2021/05/04 11:11:39;;;;;;;2.50;2.35;;;11.90;99.90;;;;;;4938288;29;20309;-70
2021/05/04 11:14:07;;;;;;;2.13;2.13;;;11.90;99.90;;;;;;4938463;29;20301;-70
2021/05/04 11:16:35;;;;;;;2.15;2.15;;;11.90;99.90;;;;;;4937501;29;20214;-68
2021/05/04 11:19:04;;;;;;;2.75;2.33;;;11.90;99.90;;;;;;4938334;29;20210;-68
2021/05/04 11:21:43;;;;;;;2.35;2.30;;;11.80;99.90;;;;;;4937741;29;20737;-69
2021/05/04 11:24:12;;;;;;;2.05;1.95;;;11.90;99.90;;;;;;4937984;29;20259;-69
2021/05/04 11:26:46;;;;;;;1.95;1.92;;;12.20;99.90;;;;;;4938542;29;20221;-69
2021/05/04 11:29:14;;;;;;;1.70;1.70;;;12.50;99.90;;;;;;4938286;29;20210;-73
2021/05/04 11:31:42;;;;;;;1.90;1.80;;;12.60;99.90;;;;;;4937325;29;20347;-73
2021/05/04 11:34:37;;;;;;;1.70;1.70;;;12.60;99.90;;;;;;4937977;29;20689;-73
2021/05/04 11:37:06;;;;;;;2.38;2.38;;;12.50;99.90;;;;;;4937925;29;20226;-73
2021/05/04 11:39:33;;;;;;;3.55;3.45;;;12.40;99.90;;;;;;4937958;29;20288;-70
2021/05/04 11:42:01;;;;;;;12.13;8.23;;;12.30;99.90;;;;;;4937360;29;20245;-70
2021/05/04 11:44:29;;;;;;;5.05;3.53;;;12.40;99.90;;;;;;4937147;29;20225;-70
2021/05/04 11:46:56;;;;;;;13.80;9.25;;;12.50;99.90;;;;;;4936210;29;20224;-70
2021/05/04 11:49:27;;;;;;;3.33;3.05;;;12.50;99.90;;;;;;4937508;29;20217;-70
2021/05/04 11:52:08;;;;;;;5.07;4.60;;;12.50;99.90;;;;;;4937539;29;20229;-70
2021/05/04 11:54:35;;;;;;;4.28;3.97;;;12.60;99.90;;;;;;4937406;29;20241;-69
2021/05/04 11:57:03;;;;;;;7.63;6.40;;;12.60;99.90;;;;;;4937384;29;20348;-70
2021/05/04 11:59:29;;;;;;;4.80;3.55;;;12.50;99.90;;;;;;4936890;29;20206;-69
2021/05/04 12:01:56;;;;;;;2.28;2.28;;;12.40;99.90;;;;;;4936939;29;20245;-69
2021/05/04 12:04:46;;;;;;;6.88;6.35;;;12.40;99.90;;;;;;4937461;29;20226;-70
2021/05/04 12:07:14;;;;;;;2.95;2.85;;;12.70;99.90;;;;;;4937287;29;20213;-70
2021/05/04 12:09:40;;;;;;;2.65;2.55;;;13.00;99.90;;;;;;4937438;29;20217;-70
2021/05/04 12:12:11;;;;;;;6.82;6.25;;;13.10;99.90;;;;;;4936850;29;20229;-69
2021/05/04 12:14:55;;;;;;;2.33;2.28;;;13.10;99.90;;;;;;4936662;29;20222;-69
2021/05/04 12:17:25;;;;;;;3.38;3.08;;;13.20;99.90;;;;;;4936695;29;20214;-69
2021/05/04 12:19:51;;;;;;;2.83;2.63;;;13.30;99.90;;;;;;4937597;29;20206;-69
2021/05/04 12:22:18;;;;;;;1.50;1.50;;;13.50;99.90;;;;;;4937593;29;20252;-70
2021/05/04 12:24:44;;;;;;;1.87;1.77;;;13.70;99.90;;;;;;4937384;29;20360;-70
2021/05/04 12:27:11;;;;;;;2.60;2.40;;;13.90;99.90;;;;;;4937434;29;20474;-70
2021/05/04 12:29:37;;;;;;;3.43;1.53;;;14.00;99.90;;;;;;4937196;29;20511;-70
2021/05/04 12:32:04;;;;;;;1.30;1.30;;;14.10;99.90;;;;;;4936813;29;20486;-70
2021/05/04 12:34:30;;;;;;;1.50;1.50;;;14.30;99.90;;;;;;4938581;29;20465;-70
2021/05/04 12:36:57;;;;;;;1.00;1.00;;;14.30;99.90;;;;;;4938141;29;20472;-70
2021/05/04 12:39:28;;;;;;;1.77;1.67;;;14.30;99.90;;;;;;4937594;29;20552;-70
2021/05/04 12:41:55;;;;;;;1.07;1.07;;;14.20;99.90;;;;;;4937811;29;20517;-70
2021/05/04 12:44:25;;;;;;;1.10;1.10;;;14.20;99.90;;;;;;4936680;29;20526;-70
2021/05/04 12:46:53;;;;;;;1.90;1.30;;;14.30;99.90;;;;;;4937025;29;20548;-70
2021/05/04 12:49:20;;;;;;;1.80;1.10;;;14.20;99.90;;;;;;4936878;29;20469;-70
2021/05/04 12:51:48;;;;;;;1.63;1.53;;;14.20;99.90;;;;;;4937058;29;20516;-70
2021/05/04 12:54:17;;;;;;;1.50;1.17;;;14.20;99.90;;;;;;4936632;29;20458;-69
2021/05/04 12:56:45;;;;;;;1.73;1.63;;;14.20;99.90;;;;;;4936554;29;20540;-69
2021/05/04 12:59:12;;;;;;;1.40;1.40;;;14.00;99.90;;;;;;4936523;29;20547;-68
2021/05/04 13:01:41;;;;;;;1.50;1.40;;;13.80;99.90;;;;;;4935621;29;20500;-70
2021/05/04 13:06:54;;;;;;;1.95;1.35;;;12.50;99.90;;;;;;4933569;28;20217;-70
2021/05/04 13:09:26;;;;;;;1.48;1.48;;;11.80;99.90;;;;;;4936570;29;20301;-69
2021/05/04 13:12:13;;;;;;;1.75;1.50;;;11.60;99.90;;;;;;4936401;29;20237;-69
2021/05/04 13:29:25;;;;;;;2.00;1.90;;;11.20;99.90;;;;;;4935962;29;20241;-69
2021/05/04 13:31:58;;;;;;;1.73;1.73;;;11.40;99.90;;;;;;4935503;29;20264;-69
2021/05/04 13:34:32;;;;;;;1.67;1.58;;;11.30;99.90;;;;;;4935497;29;20210;-69
2021/05/04 13:36:58;;;;;;;4.75;1.65;;;11.20;99.90;;;;;;4935622;29;20666;-69
2021/05/04 13:48:02;;;;;;;2.28;2.08;;;10.50;99.90;;;;;;4934815;29;20212;-69
2021/05/04 13:50:28;;;;;;;2.60;2.50;;;10.30;99.90;;;;;;4935921;29;20226;-69
2021/05/04 13:52:54;;;;;;;3.90;3.00;;;10.30;99.90;;;;;;4935501;29;20218;-69
2021/05/04 13:55:21;;;;;;;2.78;2.50;;;10.20;99.90;;;;;;4935819;29;20213;-69
2021/05/04 13:57:50;;;;;;;2.63;2.42;;;10.10;99.90;;;;;;4936813;29;20631;-69
2021/05/04 14:00:22;;;;;;;2.95;1.25;;;9.90;99.90;;;;;;4935434;29;20213;-69
2021/05/04 14:02:56;;;;;;;1.05;1.05;;;9.90;99.90;;;;;;4934925;29;20237;-69
2021/05/04 14:05:43;;;;;;;2.33;1.42;;;10.00;99.90;;;;;;4935458;29;20579;-69
2021/05/04 14:27:20;;;;;;;1.88;1.88;;;11.40;99.90;;;;;;4918325;29;20559;-69
2021/05/04 14:29:46;;;;;;;2.20;2.20;;;11.40;99.90;;;;;;4934763;29;20206;-69
2021/05/04 14:32:14;;;;;;;2.22;1.80;;;11.40;99.90;;;;;;4934608;29;20259;-69
2021/05/04 14:34:42;;;;;;;2.55;2.55;;;11.40;99.90;;;;;;4934968;29;20682;-69
2021/05/04 14:37:13;;;;;;;2.47;2.35;;;11.50;99.90;;;;;;4935272;29;20549;-69
2021/05/04 14:39:49;;;;;;;17.20;11.52;;;11.60;99.90;;;;;;4935142;29;20214;-69
2021/05/04 14:53:52;;;;;;;4.18;3.20;;;11.80;99.90;;;;;;4934902;29;20201;-69
2021/05/04 14:56:38;;;;;;;1.98;1.92;;;11.90;99.90;;;;;;4934809;29;20226;-69
2021/05/04 14:59:10;;;;;;;1.40;1.38;;;12.10;99.90;;;;;;4934880;29;20232;-69
2021/05/04 15:01:44;;;;;;;1.70;1.35;;;12.20;99.90;;;;;;4934041;29;20686;-69
2021/05/04 15:04:11;;;;;;;2.38;2.25;;;12.30;99.90;;;;;;4934597;29;20230;-70
2021/05/04 15:06:37;;;;;;;1.33;1.23;;;12.30;99.90;;;;;;4934340;29;20259;-69
2021/05/04 15:09:08;;;;;;;1.50;1.20;;;12.40;99.90;;;;;;4934423;29;20585;-69
2021/05/04 15:11:35;;;;;;;1.60;1.50;;;12.40;99.90;;;;;;4934570;29;20376;-69
2021/05/04 15:14:01;;;;;;;1.25;1.10;;;12.40;99.90;;;;;;4934717;29;20312;-69
2021/05/04 15:16:33;;;;;;;0.98;0.98;;;12.50;99.90;;;;;;4933905;29;20221;-69
2021/05/04 15:21:47;;;;;;;1.30;0.98;;;12.50;99.90;;;;;;4936887;29;20265;-69
2021/05/04 15:24:14;;;;;;;1.50;1.50;;;12.50;99.90;;;;;;4937923;29;20229;-70
2021/05/04 15:26:40;;;;;;;1.95;0.98;;;12.50;99.90;;;;;;4938390;29;20213;-73
2021/05/04 15:29:07;;;;;;;2.38;1.55;;;12.50;99.90;;;;;;4938040;29;20527;-73
2021/05/04 15:31:47;;;;;;;1.80;1.80;;;12.50;99.90;;;;;;4937203;29;20299;-73
2021/05/04 15:34:13;;;;;;;1.52;1.50;;;12.50;99.90;;;;;;4937437;29;20666;-72
2021/05/04 15:36:40;;;;;;;1.55;1.48;;;12.40;99.90;;;;;;4938071;29;20673;-74
2021/05/04 15:39:09;;;;;;;1.30;1.20;;;12.20;99.90;;;;;;4937945;29;20236;-74
2021/05/04 15:41:37;;;;;;;1.45;1.35;;;12.10;99.90;;;;;;4937688;29;20233;-73
2021/05/04 15:44:05;;;;;;;1.52;1.42;;;11.90;99.90;;;;;;4937851;29;20226;-74
2021/05/04 15:46:37;;;;;;;2.40;2.30;;;11.70;99.90;;;;;;4938033;29;20210;-72
2021/05/04 15:49:09;;;;;;;3.55;3.38;;;11.40;99.90;;;;;;4938100;29;20209;-74
2021/05/04 15:51:52;;;;;;;2.47;1.70;;;11.10;99.90;;;;;;4937669;29;20241;-72
2021/05/04 15:54:33;;;;;;;3.40;1.80;;;10.90;99.90;;;;;;4937508;29;20213;-71
2021/05/04 16:08:08;;;;;;;2.03;1.92;;;9.90;99.90;;;;;;4937120;29;20217;-69
2021/05/04 16:10:35;;;;;;;1.90;1.80;;;9.80;99.90;;;;;;4937163;29;20230;-70
2021/05/04 16:13:02;;;;;;;2.28;2.17;;;9.70;99.90;;;;;;4936908;29;20214;-70
2021/05/04 16:15:29;;;;;;;1.95;1.85;;;9.70;99.90;;;;;;4936634;29;20217;-69
2021/05/04 16:17:55;;;;;;;4.38;4.07;;;9.80;99.90;;;;;;4936467;29;20214;-70
2021/05/04 16:20:40;;;;;;;2.35;2.35;;;9.90;99.90;;;;;;4937175;29;20206;-67
2021/05/04 16:23:11;;;;;;;2.22;2.13;;;9.90;99.90;;;;;;4936957;29;20226;-70
2021/05/04 16:25:45;;;;;;;2.50;2.40;;;9.90;99.90;;;;;;4937196;29;20232;-67
2021/05/04 16:28:14;;;;;;;2.05;2.05;;;9.90;99.90;;;;;;4936716;29;20206;-68
2021/05/04 16:30:40;;;;;;;4.10;3.90;;;9.90;99.90;;;;;;4936666;29;20262;-68
2021/05/04 16:33:06;;;;;;;2.60;2.40;;;9.90;99.90;;;;;;4936260;29;20217;-68
2021/05/04 16:35:32;;;;;;;3.15;2.95;;;10.00;99.90;;;;;;4937173;29;20217;-68
2021/05/04 16:37:59;;;;;;;1.80;1.80;;;10.00;99.90;;;;;;4937040;29;20608;-69
2021/05/04 16:40:25;;;;;;;3.75;3.38;;;10.10;99.90;;;;;;4937298;29;20586;-69
2021/05/04 16:42:52;;;;;;;2.58;2.58;;;10.10;99.90;;;;;;4936713;29;20246;-69
2021/05/04 16:45:19;;;;;;;4.78;4.47;;;10.10;99.90;;;;;;4936160;29;20264;-70
2021/05/04 16:47:46;;;;;;;2.10;2.00;;;10.20;99.90;;;;;;4936640;29;20241;-68
2021/05/04 16:50:15;;;;;;;3.25;1.92;;;10.10;99.90;;;;;;4936497;29;20647;-67
2021/05/04 16:52:41;;;;;;;2.80;2.70;;;10.10;99.90;;;;;;4936184;29;20258;-68
2021/05/04 16:55:08;;;;;;;2.03;1.92;;;10.10;99.90;;;;;;4936379;29;20213;-67
2021/05/04 16:57:34;;;;;;;3.90;3.15;;;10.20;99.90;;;;;;4936372;29;20209;-67
2021/05/04 17:00:02;;;;;;;2.95;2.85;;;10.20;99.90;;;;;;4935751;29;20619;-67
2021/05/04 17:02:28;;;;;;;4.22;3.92;;;10.30;99.90;;;;;;4935771;29;20273;-71
2021/05/04 17:04:55;;;;;;;3.55;3.25;;;10.30;99.90;;;;;;4936713;29;20230;-71
2021/05/04 17:07:24;;;;;;;3.13;2.95;;;10.30;99.90;;;;;;4936667;29;20233;-71
2021/05/04 17:10:06;;;;;;;3.20;2.97;;;10.30;99.90;;;;;;4936672;29;20243;-70
2021/05/04 17:12:32;;;;;;;4.82;4.15;;;10.30;99.90;;;;;;4936696;29;20617;-67
2021/05/04 17:14:58;;;;;;;25.92;15.85;;;10.30;99.90;;;;;;4936314;29;20206;-67
2021/05/04 17:17:25;;;;;;;5.07;3.92;;;10.30;99.90;;;;;;4936695;29;20272;-70
2021/05/04 17:19:51;;;;;;;3.05;2.83;;;10.30;99.90;;;;;;4936574;29;20210;-70
2021/05/04 17:22:18;;;;;;;3.28;2.50;;;10.30;99.90;;;;;;4936821;29;20230;-70
2021/05/04 17:24:44;;;;;;;3.60;3.40;;;10.30;99.90;;;;;;4936553;29;20658;-70
2021/05/04 17:27:10;;;;;;;3.53;3.25;;;10.40;99.90;;;;;;4937154;29;20210;-71
2021/05/04 17:29:36;;;;;;;3.38;3.17;;;10.40;99.90;;;;;;4936745;29;20324;-71
2021/05/04 17:32:03;;;;;;;3.55;3.35;;;10.40;99.90;;;;;;4935958;29;20264;-70
2021/05/04 17:34:30;;;;;;;3.00;2.60;;;10.20;99.90;;;;;;4936748;29;20546;-71
2021/05/04 17:36:56;;;;;;;8.02;2.88;;;10.20;99.90;;;;;;4936584;29;20221;-72
2021/05/04 17:39:22;;;;;;;3.33;3.22;;;10.10;99.90;;;;;;4936457;29;20245;-73
2021/05/04 17:41:48;;;;;;;3.33;3.13;;;10.10;99.90;;;;;;4936501;29;20239;-73
2021/05/04 17:44:15;;;;;;;3.25;3.13;;;10.00;99.90;;;;;;4937161;29;20237;-69
2021/05/04 17:46:41;;;;;;;1.90;1.80;;;9.90;99.90;;;;;;4939224;29;20297;-66
2021/05/04 17:49:08;;;;;;;1.60;1.60;;;9.80;99.90;;;;;;4938336;29;20517;-66
2021/05/04 17:51:35;;;;;;;1.45;1.45;;;9.70;99.90;;;;;;4935560;29;20234;-67
2021/05/04 17:54:02;;;;;;;1.58;1.30;;;9.40;99.90;;;;;;4936273;29;20205;-67
2021/05/04 17:56:28;;;;;;;1.50;1.48;;;9.20;99.90;;;;;;4938516;29;20569;-70
2021/05/04 17:58:54;;;;;;;1.45;1.42;;;9.00;99.90;;;;;;4937887;29;20216;-71
2021/05/04 18:01:21;;;;;;;2.35;1.30;;;8.90;99.90;;;;;;4935602;29;20245;-72
2021/05/04 18:03:47;;;;;;;1.02;0.93;;;8.70;99.90;;;;;;4935607;29;20229;-72
2021/05/04 18:06:17;;;;;;;1.60;1.55;;;8.50;99.90;;;;;;4935227;29;20227;-68
2021/05/04 18:08:45;;;;;;;1.20;1.20;;;8.40;99.90;;;;;;4936090;29;20224;-68
2021/05/04 18:11:14;;;;;;;1.33;1.30;;;8.50;99.90;;;;;;4935311;29;20230;-68